sensor_id;sensor_type;location;lat;lon;timestamp;pressure;altitude;pressure_sealevel;temperature;humidity
58843;BME280;44614;54.356;10.100;2023-08-06T00:00:39;100626.53;;;15.53;93.23
58843;BME280;44614;54.356;10.100;2023-08-06T00:03:05;100627.91;;;15.50;93.21
58843;BME280;44614;54.356;10.100;2023-08-06T00:05:30;100625.16;;;15.50;92.72
58843;BME280;44614;54.356;10.100;2023-08-06T00:07:56;100627.91;;;15.50;93.01
58843;BME280;44614;54.356;10.100;2023-08-06T00:10:21;100632.84;;;15.48;93.28
58843;BME280;44614;54.356;10.100;2023-08-06T00:12:47;100621.78;;;15.48;92.94
58843;BME280;44614;54.356;10.100;2023-08-06T00:15:14;100625.38;;;15.49;92.74
58843;BME280;44614;54.356;10.100;2023-08-06T00:17:39;100617.94;;;15.49;92.33
58843;BME280;44614;54.356;10.100;2023-08-06T00:20:05;100622.09;;;15.52;91.70
58843;BME280;44614;54.356;10.100;2023-08-06T00:22:35;100617.41;;;15.52;91.37
58843;BME280;44614;54.356;10.100;2023-08-06T00:25:02;100611.88;;;15.52;91.20
58843;BME280;44614;54.356;10.100;2023-08-06T00:27:28;100593.25;;;15.43;91.06
58843;BME280;44614;54.356;10.100;2023-08-06T00:29:54;100603.84;;;15.51;91.55
58843;BME280;44614;54.356;10.100;2023-08-06T00:32:19;100614.06;;;15.50;91.39
58843;BME280;44614;54.356;10.100;2023-08-06T00:34:45;100595.50;;;15.46;91.19
58843;BME280;44614;54.356;10.100;2023-08-06T00:37:10;100607.72;;;15.50;90.79
58843;BME280;44614;54.356;10.100;2023-08-06T00:39:36;100614.06;;;15.50;90.92
58843;BME280;44614;54.356;10.100;2023-08-06T00:42:01;100613.75;;;15.47;91.46
58843;BME280;44614;54.356;10.100;2023-08-06T00:44:27;100592.88;;;15.34;91.08
58843;BME280;44614;54.356;10.100;2023-08-06T00:46:52;100614.28;;;15.44;90.87
58843;BME280;44614;54.356;10.100;2023-08-06T00:49:18;100602.88;;;15.40;89.97
58843;BME280;44614;54.356;10.100;2023-08-06T00:51:44;100624.81;;;15.47;89.41
58843;BME280;44614;54.356;10.100;2023-08-06T00:54:09;100635.63;;;15.48;88.68
58843;BME280;44614;54.356;10.100;2023-08-06T00:56:36;100629.00;;;15.49;88.74
58843;BME280;44614;54.356;10.100;2023-08-06T00:59:02;100632.06;;;15.53;92.01
58843;BME280;44614;54.356;10.100;2023-08-06T01:01:28;100629.00;;;15.49;90.46
58843;BME280;44614;54.356;10.100;2023-08-06T01:03:55;100626.50;;;15.48;89.69
58843;BME280;44614;54.356;10.100;2023-08-06T01:12:06;100621.00;;;15.53;88.58
58843;BME280;44614;54.356;10.100;2023-08-06T01:14:50;100613.75;;;15.47;89.87
58843;BME280;44614;54.356;10.100;2023-08-06T01:17:17;100598.16;;;15.35;91.02
58843;BME280;44614;54.356;10.100;2023-08-06T01:19:43;100609.78;;;15.38;90.99
58843;BME280;44614;54.356;10.100;2023-08-06T01:22:08;100607.00;;;15.38;90.15
58843;BME280;44614;54.356;10.100;2023-08-06T01:24:34;100598.19;;;15.41;89.79
58843;BME280;44614;54.356;10.100;2023-08-06T01:27:03;100591.00;;;15.40;90.68
58843;BME280;44614;54.356;10.100;2023-08-06T01:29:35;100596.53;;;15.40;90.52
58843;BME280;44614;54.356;10.100;2023-08-06T01:32:03;100585.66;;;15.33;91.00
58843;BME280;44614;54.356;10.100;2023-08-06T01:34:30;100593.41;;;15.31;94.13
58843;BME280;44614;54.356;10.100;2023-08-06T01:36:56;100568.06;;;15.17;92.00
58843;BME280;44614;54.356;10.100;2023-08-06T01:39:22;100586.50;;;15.33;90.82
58843;BME280;44614;54.356;10.100;2023-08-06T01:41:50;100592.34;;;15.37;90.07
58843;BME280;44614;54.356;10.100;2023-08-06T01:44:16;100585.97;;;15.36;90.07
58843;BME280;44614;54.356;10.100;2023-08-06T01:46:41;100585.97;;;15.36;90.74
58843;BME280;44614;54.356;10.100;2023-08-06T01:49:07;100579.06;;;15.34;90.90
58843;BME280;44614;54.356;10.100;2023-08-06T01:51:32;100572.09;;;15.31;91.33
58843;BME280;44614;54.356;10.100;2023-08-06T01:53:58;100572.34;;;15.30;91.63
58843;BME280;44614;54.356;10.100;2023-08-06T01:56:23;100565.41;;;15.27;91.75
58843;BME280;44614;54.356;10.100;2023-08-06T01:58:49;100564.91;;;15.30;91.80
58843;BME280;44614;54.356;10.100;2023-08-06T02:01:14;100569.56;;;15.30;91.79
58843;BME280;44614;54.356;10.100;2023-08-06T02:03:40;100567.34;;;15.27;92.22
58843;BME280;44614;54.356;10.100;2023-08-06T02:06:05;100552.69;;;15.26;92.40
58843;BME280;44614;54.356;10.100;2023-08-06T02:08:30;100556.53;;;15.25;92.93
58843;BME280;44614;54.356;10.100;2023-08-06T02:10:56;100555.16;;;15.23;93.73
58843;BME280;44614;54.356;10.100;2023-08-06T02:13:23;100558.44;;;15.20;96.61
58843;BME280;44614;54.356;10.100;2023-08-06T02:15:48;100553.91;;;15.14;94.65
58843;BME280;44614;54.356;10.100;2023-08-06T02:18:14;100553.72;;;15.20;93.80
58843;BME280;44614;54.356;10.100;2023-08-06T02:20:42;100554.81;;;15.19;93.70
58843;BME280;44614;54.356;10.100;2023-08-06T02:23:08;100550.97;;;15.20;93.87
58843;BME280;44614;54.356;10.100;2023-08-06T02:25:34;100548.72;;;15.17;94.84
58843;BME280;44614;54.356;10.100;2023-08-06T02:28:00;100549.53;;;15.18;94.36
58843;BME280;44614;54.356;10.100;2023-08-06T02:30:25;100542.06;;;15.18;94.25
58843;BME280;44614;54.356;10.100;2023-08-06T02:32:51;100538.16;;;15.14;95.53
58843;BME280;44614;54.356;10.100;2023-08-06T02:35:16;100539.56;;;15.17;95.34
58843;BME280;44614;54.356;10.100;2023-08-06T02:37:41;100530.97;;;15.13;95.16
58843;BME280;44614;54.356;10.100;2023-08-06T02:40:07;100523.66;;;15.02;95.64
58843;BME280;44614;54.356;10.100;2023-08-06T02:42:33;100531.78;;;15.14;95.85
58843;BME280;44614;54.356;10.100;2023-08-06T02:44:58;100535.16;;;15.16;96.28
58843;BME280;44614;54.356;10.100;2023-08-06T02:47:24;100523.19;;;15.10;97.04
58843;BME280;44614;54.356;10.100;2023-08-06T02:49:49;100525.41;;;15.08;96.97
58843;BME280;44614;54.356;10.100;2023-08-06T02:52:14;100504.25;;;14.97;97.20
58843;BME280;44614;54.356;10.100;2023-08-06T02:54:41;100517.88;;;15.03;97.73
58843;BME280;44614;54.356;10.100;2023-08-06T02:57:06;100512.03;;;15.00;99.19
58843;BME280;44614;54.356;10.100;2023-08-06T02:59:33;100510.31;;;14.94;99.46
58843;BME280;44614;54.356;10.100;2023-08-06T03:02:04;100512.47;;;14.92;99.06
58843;BME280;44614;54.356;10.100;2023-08-06T03:04:41;100499.75;;;14.91;99.91
58843;BME280;44614;54.356;10.100;2023-08-06T03:07:08;100501.19;;;14.93;100.00
58843;BME280;44614;54.356;10.100;2023-08-06T03:09:41;100485.38;;;14.89;99.21
58843;BME280;44614;54.356;10.100;2023-08-06T03:12:07;100501.50;;;14.97;98.13
58843;BME280;44614;54.356;10.100;2023-08-06T03:14:33;100493.72;;;14.94;98.53
58843;BME280;44614;54.356;10.100;2023-08-06T03:16:58;100488.19;;;14.94;98.42
58843;BME280;44614;54.356;10.100;2023-08-06T03:19:24;100503.44;;;14.96;99.03
58843;BME280;44614;54.356;10.100;2023-08-06T03:21:49;100454.72;;;14.68;99.37
58843;BME280;44614;54.356;10.100;2023-08-06T03:24:16;100499.75;;;14.91;100.00
58843;BME280;44614;54.356;10.100;2023-08-06T03:26:43;100485.31;;;14.83;99.34
58843;BME280;44614;54.356;10.100;2023-08-06T03:29:10;100461.38;;;14.67;100.00
58843;BME280;44614;54.356;10.100;2023-08-06T03:31:35;100495.84;;;14.86;100.00
58843;BME280;44614;54.356;10.100;2023-08-06T03:34:01;100495.28;;;14.84;100.00
58843;BME280;44614;54.356;10.100;2023-08-06T03:36:28;100474.06;;;14.68;100.00
58843;BME280;44614;54.356;10.100;2023-08-06T03:38:54;100480.00;;;14.77;100.00
58843;BME280;44614;54.356;10.100;2023-08-06T03:41:20;100456.84;;;14.61;100.00
58843;BME280;44614;54.356;10.100;2023-08-06T03:43:45;100477.75;;;14.74;100.00
58843;BME280;44614;54.356;10.100;2023-08-06T03:46:17;100478.00;;;14.72;100.00
58843;BME280;44614;54.356;10.100;2023-08-06T03:48:43;100479.13;;;14.76;100.00
58843;BME280;44614;54.356;10.100;2023-08-06T03:51:09;100470.53;;;14.73;100.00
58843;BME280;44614;54.356;10.100;2023-08-06T03:53:36;100468.03;;;14.71;100.00
58843;BME280;44614;54.356;10.100;2023-08-06T03:56:02;100473.59;;;14.76;100.00
58843;BME280;44614;54.356;10.100;2023-08-06T03:58:29;100452.78;;;14.69;100.00
58843;BME280;44614;54.356;10.100;2023-08-06T04:01:02;100436.38;;;14.57;100.00
58843;BME280;44614;54.356;10.100;2023-08-06T04:03:38;100447.81;;;14.66;100.00
58843;BME280;44614;54.356;10.100;2023-08-06T04:06:03;100452.56;;;14.70;100.00
58843;BME280;44614;54.356;10.100;2023-08-06T04:08:29;100455.88;;;14.72;100.00
58843;BME280;44614;54.356;10.100;2023-08-06T04:10:55;100437.00;;;14.64;100.00
58843;BME280;44614;54.356;10.100;2023-08-06T04:13:21;100440.91;;;14.68;100.00
58843;BME280;44614;54.356;10.100;2023-08-06T04:15:46;100440.34;;;14.66;100.00
58843;BME280;44614;54.356;10.100;2023-08-06T04:18:12;100431.53;;;14.69;100.00
58843;BME280;44614;54.356;10.100;2023-08-06T04:20:45;100444.59;;;14.74;100.00
58843;BME280;44614;54.356;10.100;2023-08-06T04:23:11;100442.06;;;14.72;100.00
58843;BME280;44614;54.356;10.100;2023-08-06T04:25:37;100446.50;;;14.73;100.00
58843;BME280;44614;54.356;10.100;2023-08-06T04:28:02;100424.84;;;14.65;100.00
58843;BME280;44614;54.356;10.100;2023-08-06T04:30:28;100441.84;;;14.79;100.00
58843;BME280;44614;54.356;10.100;2023-08-06T04:32:53;100444.06;;;14.77;100.00
58843;BME280;44614;54.356;10.100;2023-08-06T04:35:19;100423.31;;;14.74;100.00
58843;BME280;44614;54.356;10.100;2023-08-06T04:37:46;100433.06;;;14.82;100.00
58843;BME280;44614;54.356;10.100;2023-08-06T04:40:11;100438.31;;;14.83;100.00
58843;BME280;44614;54.356;10.100;2023-08-06T04:42:37;100431.13;;;14.82;100.00
58843;BME280;44614;54.356;10.100;2023-08-06T04:45:02;100428.88;;;14.79;100.00
58843;BME280;44614;54.356;10.100;2023-08-06T04:47:28;100440.56;;;14.86;100.00
58843;BME280;44614;54.356;10.100;2023-08-06T04:49:53;100429.97;;;14.78;100.00
58843;BME280;44614;54.356;10.100;2023-08-06T04:52:19;100438.06;;;14.85;100.00
58843;BME280;44614;54.356;10.100;2023-08-06T04:54:44;100440.34;;;14.93;100.00
58843;BME280;44614;54.356;10.100;2023-08-06T04:57:10;100432.25;;;14.86;100.00
58843;BME280;44614;54.356;10.100;2023-08-06T04:59:35;100436.75;;;14.93;100.00
58843;BME280;44614;54.356;10.100;2023-08-06T05:02:01;100439.56;;;14.98;100.00
58843;BME280;44614;54.356;10.100;2023-08-06T05:04:27;100453.19;;;15.04;100.00
58843;BME280;44614;54.356;10.100;2023-08-06T05:06:52;100449.59;;;15.04;100.00
58843;BME280;44614;54.356;10.100;2023-08-06T05:09:17;100441.53;;;15.02;100.00
58843;BME280;44614;54.356;10.100;2023-08-06T05:11:43;100435.78;;;15.09;100.00
58843;BME280;44614;54.356;10.100;2023-08-06T05:14:08;100412.13;;;14.91;100.00
58843;BME280;44614;54.356;10.100;2023-08-06T05:16:34;100451.59;;;15.14;100.00
58843;BME280;44614;54.356;10.100;2023-08-06T05:18:59;100431.59;;;15.06;100.00
58843;BME280;44614;54.356;10.100;2023-08-06T05:21:24;100446.97;;;15.19;100.00
58843;BME280;44614;54.356;10.100;2023-08-06T05:23:50;100434.44;;;15.11;100.00
58843;BME280;44614;54.356;10.100;2023-08-06T05:26:15;100452.25;;;15.26;100.00
58843;BME280;44614;54.356;10.100;2023-08-06T05:28:44;100440.34;;;15.25;100.00
58843;BME280;44614;54.356;10.100;2023-08-06T05:31:10;100437.59;;;15.25;100.00
58843;BME280;44614;54.356;10.100;2023-08-06T05:33:35;100423.13;;;15.18;100.00
58843;BME280;44614;54.356;10.100;2023-08-06T05:36:01;100443.75;;;15.38;100.00
58843;BME280;44614;54.356;10.100;2023-08-06T05:38:26;100428.78;;;15.33;100.00
58843;BME280;44614;54.356;10.100;2023-08-06T05:40:52;100423.50;;;15.27;100.00
58843;BME280;44614;54.356;10.100;2023-08-06T05:43:17;100439.13;;;15.43;100.00
58843;BME280;44614;54.356;10.100;2023-08-06T05:45:46;100446.38;;;15.49;100.00
58843;BME280;44614;54.356;10.100;2023-08-06T05:48:12;100439.66;;;15.45;100.00
58843;BME280;44614;54.356;10.100;2023-08-06T05:50:37;100421.69;;;15.43;100.00
58843;BME280;44614;54.356;10.100;2023-08-06T05:53:03;100432.03;;;15.57;100.00
58843;BME280;44614;54.356;10.100;2023-08-06T05:55:28;100425.13;;;15.60;100.00
58843;BME280;44614;54.356;10.100;2023-08-06T05:57:54;100424.91;;;15.67;100.00
58843;BME280;44614;54.356;10.100;2023-08-06T06:00:20;100432.16;;;15.73;100.00
58843;BME280;44614;54.356;10.100;2023-08-06T06:02:46;100404.06;;;15.59;100.00
58843;BME280;44614;54.356;10.100;2023-08-06T06:05:11;100439.69;;;15.82;100.00
58843;BME280;44614;54.356;10.100;2023-08-06T06:07:37;100433.91;;;15.89;100.00
58843;BME280;44614;54.356;10.100;2023-08-06T06:10:02;100411.34;;;15.65;100.00
58843;BME280;44614;54.356;10.100;2023-08-06T06:12:28;100436.97;;;15.93;100.00
58843;BME280;44614;54.356;10.100;2023-08-06T06:14:53;100364.72;;;15.47;100.00
58843;BME280;44614;54.356;10.100;2023-08-06T06:17:18;100438.69;;;15.99;100.00
58843;BME280;44614;54.356;10.100;2023-08-06T06:19:44;100424.78;;;15.89;100.00
58843;BME280;44614;54.356;10.100;2023-08-06T06:22:09;100435.66;;;16.05;100.00
58843;BME280;44614;54.356;10.100;2023-08-06T06:24:34;100436.25;;;16.07;100.00
58843;BME280;44614;54.356;10.100;2023-08-06T06:27:00;100438.72;;;16.09;99.69
58843;BME280;44614;54.356;10.100;2023-08-06T06:29:25;100442.09;;;16.16;99.42
58843;BME280;44614;54.356;10.100;2023-08-06T06:31:51;100427.38;;;16.11;99.15
58843;BME280;44614;54.356;10.100;2023-08-06T06:34:16;100437.13;;;16.18;98.91
58843;BME280;44614;54.356;10.100;2023-08-06T06:36:41;100423.53;;;16.17;98.86
58843;BME280;44614;54.356;10.100;2023-08-06T06:39:07;100441.56;;;16.24;98.42
58843;BME280;44614;54.356;10.100;2023-08-06T06:41:33;100442.97;;;16.27;97.64
58843;BME280;44614;54.356;10.100;2023-08-06T06:44:07;100438.25;;;16.27;97.50
58843;BME280;44614;54.356;10.100;2023-08-06T06:46:32;100443.81;;;16.32;96.96
58843;BME280;44614;54.356;10.100;2023-08-06T06:48:57;100435.78;;;16.31;96.53
58843;BME280;44614;54.356;10.100;2023-08-06T06:51:23;100430.81;;;16.38;96.57
58843;BME280;44614;54.356;10.100;2023-08-06T06:53:48;100435.53;;;16.38;95.93
58843;BME280;44614;54.356;10.100;2023-08-06T06:56:14;100435.53;;;16.43;95.42
58843;BME280;44614;54.356;10.100;2023-08-06T06:58:39;100426.41;;;16.37;95.28
58843;BME280;44614;54.356;10.100;2023-08-06T07:01:06;100421.09;;;16.36;94.56
58843;BME280;44614;54.356;10.100;2023-08-06T07:03:32;100420.31;;;16.45;94.29
58843;BME280;44614;54.356;10.100;2023-08-06T07:05:58;100419.78;;;16.48;94.13
58843;BME280;44614;54.356;10.100;2023-08-06T07:08:24;100418.66;;;16.49;93.30
58843;BME280;44614;54.356;10.100;2023-08-06T07:10:49;100433.09;;;16.56;92.67
58843;BME280;44614;54.356;10.100;2023-08-06T07:13:15;100435.06;;;16.56;92.79
58843;BME280;44614;54.356;10.100;2023-08-06T07:15:41;100428.94;;;16.59;92.89
58843;BME280;44614;54.356;10.100;2023-08-06T07:18:07;100430.34;;;16.62;92.42
58843;BME280;44614;54.356;10.100;2023-08-06T07:20:32;100425.34;;;16.58;92.17
58843;BME280;44614;54.356;10.100;2023-08-06T07:23:00;100444.78;;;16.69;92.50
58843;BME280;44614;54.356;10.100;2023-08-06T07:25:26;100439.50;;;16.67;91.99
58843;BME280;44614;54.356;10.100;2023-08-06T07:27:51;100440.06;;;16.64;91.94
58843;BME280;44614;54.356;10.100;2023-08-06T07:30:17;100421.72;;;16.53;91.62
58843;BME280;44614;54.356;10.100;2023-08-06T07:32:42;100424.75;;;16.51;91.90
58843;BME280;44614;54.356;10.100;2023-08-06T07:35:08;100405.06;;;16.43;92.14
58843;BME280;44614;54.356;10.100;2023-08-06T07:37:38;100439.22;;;16.64;91.79
58843;BME280;44614;54.356;10.100;2023-08-06T07:40:04;100435.06;;;16.56;91.26
58843;BME280;44614;54.356;10.100;2023-08-06T07:42:30;100436.13;;;16.55;91.69
58843;BME280;44614;54.356;10.100;2023-08-06T07:44:58;100424.50;;;16.53;91.92
58843;BME280;44614;54.356;10.100;2023-08-06T07:47:24;100432.28;;;16.66;91.93
58843;BME280;44614;54.356;10.100;2023-08-06T07:49:50;100409.53;;;16.49;91.77
58843;BME280;44614;54.356;10.100;2023-08-06T07:52:15;100407.59;;;16.54;91.44
58843;BME280;44614;54.356;10.100;2023-08-06T07:54:41;100431.81;;;16.79;91.56
58843;BME280;44614;54.356;10.100;2023-08-06T07:57:06;100429.59;;;16.87;91.40
58843;BME280;44614;54.356;10.100;2023-08-06T07:59:32;100433.47;;;16.80;91.34
58843;BME280;44614;54.356;10.100;2023-08-06T08:01:58;100413.75;;;16.82;91.19
58843;BME280;44614;54.356;10.100;2023-08-06T08:04:24;100427.41;;;16.99;90.99
58843;BME280;44614;54.356;10.100;2023-08-06T08:06:50;100431.53;;;16.96;90.46
58843;BME280;44614;54.356;10.100;2023-08-06T08:09:15;100426.56;;;16.98;90.57
58843;BME280;44614;54.356;10.100;2023-08-06T08:11:41;100432.13;;;16.98;90.65
58843;BME280;44614;54.356;10.100;2023-08-06T08:14:07;100429.03;;;17.05;90.40
58843;BME280;44614;54.356;10.100;2023-08-06T08:16:32;100384.66;;;16.79;90.46
58843;BME280;44614;54.356;10.100;2023-08-06T08:18:58;100416.28;;;17.04;89.27
58843;BME280;44614;54.356;10.100;2023-08-06T08:21:23;100427.13;;;17.11;89.24
58843;BME280;44614;54.356;10.100;2023-08-06T08:23:51;100416.28;;;17.04;88.67
58843;BME280;44614;54.356;10.100;2023-08-06T08:26:17;100421.56;;;17.11;88.67
58843;BME280;44614;54.356;10.100;2023-08-06T08:28:43;100415.75;;;17.07;88.57
58843;BME280;44614;54.356;10.100;2023-08-06T08:31:09;100419.63;;;17.16;88.61
58843;BME280;44614;54.356;10.100;2023-08-06T08:33:35;100399.09;;;17.02;87.75
58843;BME280;44614;54.356;10.100;2023-08-06T08:36:00;100422.41;;;17.21;87.79
58843;BME280;44614;54.356;10.100;2023-08-06T08:38:25;100410.22;;;17.17;87.91
58843;BME280;44614;54.356;10.100;2023-08-06T08:40:52;100414.09;;;17.21;88.18
58843;BME280;44614;54.356;10.100;2023-08-06T08:43:20;100420.19;;;17.28;88.52
58843;BME280;44614;54.356;10.100;2023-08-06T08:45:49;100400.22;;;17.21;87.15
58843;BME280;44614;54.356;10.100;2023-08-06T08:48:16;100418.53;;;17.33;87.04
58843;BME280;44614;54.356;10.100;2023-08-06T08:50:44;100415.75;;;17.38;87.43
58843;BME280;44614;54.356;10.100;2023-08-06T08:53:11;100405.47;;;17.48;87.29
58843;BME280;44614;54.356;10.100;2023-08-06T08:55:38;100406.81;;;17.61;87.09
58843;BME280;44614;54.356;10.100;2023-08-06T08:58:04;100411.81;;;17.80;87.04
58843;BME280;44614;54.356;10.100;2023-08-06T09:00:30;100412.88;;;17.99;87.35
58843;BME280;44614;54.356;10.100;2023-08-06T09:02:57;100416.72;;;18.13;86.75
58843;BME280;44614;54.356;10.100;2023-08-06T09:05:25;100415.78;;;18.33;85.99
58843;BME280;44614;54.356;10.100;2023-08-06T09:07:54;100411.63;;;18.36;86.10
58843;BME280;44614;54.356;10.100;2023-08-06T09:10:20;100402.38;;;18.45;86.74
58843;BME280;44614;54.356;10.100;2023-08-06T09:12:51;100394.25;;;18.59;86.48
58843;BME280;44614;54.356;10.100;2023-08-06T09:15:16;100413.63;;;18.69;85.24
58843;BME280;44614;54.356;10.100;2023-08-06T09:17:42;100398.13;;;18.58;84.97
58843;BME280;44614;54.356;10.100;2023-08-06T09:20:11;100399.53;;;18.61;85.51
58843;BME280;44614;54.356;10.100;2023-08-06T09:22:37;100384.00;;;18.55;85.66
58843;BME280;44614;54.356;10.100;2023-08-06T09:25:03;100409.44;;;18.77;85.51
58843;BME280;44614;54.356;10.100;2023-08-06T09:27:31;100398.09;;;18.73;84.99
58843;BME280;44614;54.356;10.100;2023-08-06T09:29:57;100405.00;;;18.81;84.99
58843;BME280;44614;54.356;10.100;2023-08-06T09:32:22;100407.94;;;18.95;85.08
58843;BME280;44614;54.356;10.100;2023-08-06T09:34:54;100412.06;;;19.03;82.30
58843;BME280;44614;54.356;10.100;2023-08-06T09:37:20;100395.38;;;19.03;84.41
58843;BME280;44614;54.356;10.100;2023-08-06T09:39:47;100413.41;;;19.10;84.27
58843;BME280;44614;54.356;10.100;2023-08-06T09:42:14;100412.31;;;19.06;83.44
58843;BME280;44614;54.356;10.100;2023-08-06T09:44:40;100416.19;;;19.10;84.84
58843;BME280;44614;54.356;10.100;2023-08-06T09:47:06;100408.91;;;19.14;85.12
58843;BME280;44614;54.356;10.100;2023-08-06T09:51:57;100413.97;;;19.07;83.00
58843;BME280;44614;54.356;10.100;2023-08-06T09:54:25;100410.66;;;19.05;84.26
58843;BME280;44614;54.356;10.100;2023-08-06T09:56:53;100406.63;;;19.21;84.82
58843;BME280;44614;54.356;10.100;2023-08-06T09:59:18;100410.44;;;19.31;83.32
58843;BME280;44614;54.356;10.100;2023-08-06T10:01:45;100413.63;;;19.48;83.45
58843;BME280;44614;54.356;10.100;2023-08-06T10:04:13;100407.66;;;19.60;81.95
58843;BME280;44614;54.356;10.100;2023-08-06T10:06:41;100410.31;;;19.75;82.76
58843;BME280;44614;54.356;10.100;2023-08-06T10:09:07;100417.19;;;19.83;81.47
58843;BME280;44614;54.356;10.100;2023-08-06T10:11:36;100389.25;;;19.64;81.13
58843;BME280;44614;54.356;10.100;2023-08-06T10:14:06;100400.06;;;19.70;80.52
58843;BME280;44614;54.356;10.100;2023-08-06T10:16:34;100406.59;;;19.56;79.81
58843;BME280;44614;54.356;10.100;2023-08-06T10:19:01;100408.31;;;19.52;82.47
58843;BME280;44614;54.356;10.100;2023-08-06T10:21:28;100383.69;;;19.35;81.11
58843;BME280;44614;54.356;10.100;2023-08-06T10:23:56;100405.66;;;19.36;81.16
58843;BME280;44614;54.356;10.100;2023-08-06T10:26:28;100393.78;;;19.26;81.69
58843;BME280;44614;54.356;10.100;2023-08-06T10:28:54;100398.22;;;19.56;82.60
58843;BME280;44614;54.356;10.100;2023-08-06T10:31:53;100400.06;;;19.94;80.17
58843;BME280;44614;54.356;10.100;2023-08-06T10:34:18;100403.75;;;20.14;79.40
58843;BME280;44614;54.356;10.100;2023-08-06T10:36:44;100400.97;;;20.14;78.96
58843;BME280;44614;54.356;10.100;2023-08-06T10:39:13;100384.72;;;20.40;78.37
58843;BME280;44614;54.356;10.100;2023-08-06T10:41:42;100393.69;;;20.61;78.56
58843;BME280;44614;54.356;10.100;2023-08-06T10:44:09;100387.88;;;20.76;78.27
58843;BME280;44614;54.356;10.100;2023-08-06T10:46:36;100393.75;;;20.75;77.44
58843;BME280;44614;54.356;10.100;2023-08-06T10:49:02;100389.63;;;20.91;77.69
58843;BME280;44614;54.356;10.100;2023-08-06T10:51:27;100385.09;;;20.95;77.09
58843;BME280;44614;54.356;10.100;2023-08-06T10:53:53;100385.94;;;21.09;76.16
58843;BME280;44614;54.356;10.100;2023-08-06T10:56:20;100384.84;;;21.10;75.38
58843;BME280;44614;54.356;10.100;2023-08-06T10:58:48;100381.63;;;21.17;75.65
58843;BME280;44614;54.356;10.100;2023-08-06T11:01:14;100383.78;;;21.06;74.91
58843;BME280;44614;54.356;10.100;2023-08-06T11:03:41;100384.78;;;20.78;66.28
58843;BME280;44614;54.356;10.100;2023-08-06T11:06:07;100385.09;;;20.57;75.59
58843;BME280;44614;54.356;10.100;2023-08-06T11:08:34;100337.63;;;20.19;75.73
58843;BME280;44614;54.356;10.100;2023-08-06T11:11:11;100381.25;;;20.48;72.94
58843;BME280;44614;54.356;10.100;2023-08-06T11:13:47;100365.28;;;20.35;74.51
58843;BME280;44614;54.356;10.100;2023-08-06T11:16:23;100362.88;;;20.47;75.81
58843;BME280;44614;54.356;10.100;2023-08-06T11:18:52;100366.22;;;20.68;75.49
58843;BME280;44614;54.356;10.100;2023-08-06T11:21:22;100354.19;;;20.73;75.09
58843;BME280;44614;54.356;10.100;2023-08-06T11:23:48;100354.59;;;20.99;75.20
58843;BME280;44614;54.356;10.100;2023-08-06T11:26:18;100363.09;;;21.40;74.17
58843;BME280;44614;54.356;10.100;2023-08-06T11:28:44;100354.25;;;21.65;73.69
58843;BME280;44614;54.356;10.100;2023-08-06T11:31:19;100350.66;;;21.79;72.05
58843;BME280;44614;54.356;10.100;2023-08-06T11:33:44;100353.13;;;21.94;72.53
58843;BME280;44614;54.356;10.100;2023-08-06T11:36:10;100322.69;;;21.93;71.42
58843;BME280;44614;54.356;10.100;2023-08-06T11:38:35;100343.06;;;21.65;70.30
58843;BME280;44614;54.356;10.100;2023-08-06T11:41:01;100349.88;;;21.46;73.53
58843;BME280;44614;54.356;10.100;2023-08-06T11:43:30;100347.81;;;21.51;73.61
58843;BME280;44614;54.356;10.100;2023-08-06T11:45:56;100342.00;;;21.48;72.98
58843;BME280;44614;54.356;10.100;2023-08-06T11:48:21;100342.66;;;21.45;73.51
58843;BME280;44614;54.356;10.100;2023-08-06T11:50:47;100340.28;;;21.65;73.43
58843;BME280;44614;54.356;10.100;2023-08-06T11:53:13;100338.81;;;21.82;72.99
58843;BME280;44614;54.356;10.100;2023-08-06T11:55:39;100343.28;;;21.97;73.10
58843;BME280;44614;54.356;10.100;2023-08-06T11:58:05;100346.00;;;22.16;71.86
58843;BME280;44614;54.356;10.100;2023-08-06T12:00:30;100329.81;;;22.26;71.42
58843;BME280;44614;54.356;10.100;2023-08-06T12:02:56;100327.50;;;22.42;69.61
58843;BME280;44614;54.356;10.100;2023-08-06T12:05:23;100344.56;;;22.54;69.66
58843;BME280;44614;54.356;10.100;2023-08-06T12:07:51;100342.94;;;22.76;69.05
58843;BME280;44614;54.356;10.100;2023-08-06T12:10:17;100325.59;;;23.10;68.14
58843;BME280;44614;54.356;10.100;2023-08-06T12:12:45;100316.75;;;23.17;66.57
58843;BME280;44614;54.356;10.100;2023-08-06T12:15:10;100307.13;;;22.86;66.89
58843;BME280;44614;54.356;10.100;2023-08-06T12:17:36;100307.16;;;23.09;66.86
58843;BME280;44614;54.356;10.100;2023-08-06T12:20:03;100307.72;;;23.51;66.97
58843;BME280;44614;54.356;10.100;2023-08-06T12:22:30;100315.50;;;23.63;65.79
58843;BME280;44614;54.356;10.100;2023-08-06T12:25:03;100314.34;;;23.64;65.42
58843;BME280;44614;54.356;10.100;2023-08-06T12:27:29;100313.81;;;23.22;63.95
58843;BME280;44614;54.356;10.100;2023-08-06T12:29:54;100283.91;;;22.86;66.56
58843;BME280;44614;54.356;10.100;2023-08-06T12:32:20;100298.69;;;23.00;66.93
58843;BME280;44614;54.356;10.100;2023-08-06T12:34:45;100296.44;;;23.42;66.39
58843;BME280;44614;54.356;10.100;2023-08-06T12:37:11;100304.56;;;23.52;65.28
58843;BME280;44614;54.356;10.100;2023-08-06T12:39:36;100303.34;;;23.36;65.54
58843;BME280;44614;54.356;10.100;2023-08-06T12:42:03;100307.34;;;23.13;65.64